Bayfield, CO

8:15 AM MDT on July 30, 2016 (GMT -0600)
Pine River Ranches | | Change Station

Elev 7178 ft 37.30 °N, 107.61 °W | Updated 59 seconds ago

Clear
Clear
59.2 °F
Feels Like 59.2 °F
N
2.2
Wind Variable Wind from NE

Today
High -- | Low -- °F
--% Chance of Precip.
Yesterday
High -- | Low -- °F
Precip. -- in
Pressure 29.95 in
Visibility 10.0 miles
Clouds Clear
Dew Point 48 °F
Humidity 66%
Rainfall 0.00 in
Snow Depth Not available.
6:13 AM 8:19 PM
Waning Crescent, 13% visible
METAR KDRO 301353Z AUTO 07005KT 10SM CLR 18/07 A3025 RMK AO2 SLP142 T01780067
Pressure 29.95 in
Visibility 10.0 miles
Clouds Clear
Dew Point 48 °F
Humidity 66%
Rainfall 0.00 in
Snow Depth Not available.
6:13 AM 8:19 PM
Waning Crescent, 13% visible
METAR KDRO 301353Z AUTO 07005KT 10SM CLR 18/07 A3025 RMK AO2 SLP142 T01780067

10-Day Weather Forecast

Almanac

Astronomy

Jul. 30, 2016 Rise Set
Actual Time
Civil Twilight
Nautical Twilight
Astronomical Twilight
Moon
Length of Visible Light
Length of Day
Tomorrow will be .
, % of the Moon is Illuminated

Today's Extremes

State Highs State Lows

Community

WunderPhotos

Upload Photos

1,928,564 photos uploaded!

WunderBlog® & News

Nearby

Air Quality

  Air Quality AQ Index Pollutant
Not available.

Snow Depth

Station Depth Elevation

Earthquake Activity

City Distance Mag. Time & Date
Minimum magnitude displayed is 2.5.

Coastal Water Temperatures

Place Temperature

Stations

Nearby Weather Stations

Station Location Temp. Windchill Dew Point Humidity Wind Precip. Elev Updated Type
                   

Watches & Warnings

There are currently no watches in effect.